createdAt,value
2018-04-02T00:02:19.310Z,3.96
2018-04-02T00:04:44.980Z,3.93
2018-04-02T00:07:10.649Z,3.94
2018-04-02T00:09:36.356Z,3.93
2018-04-02T00:12:02.036Z,3.96
2018-04-02T00:14:27.730Z,3.91
2018-04-02T00:16:53.421Z,3.90
2018-04-02T00:19:19.092Z,3.85
2018-04-02T00:21:44.749Z,3.85
2018-04-02T00:24:10.451Z,3.87
2018-04-02T00:26:36.579Z,3.89
2018-04-02T00:29:02.236Z,3.91
2018-04-02T00:31:27.916Z,3.91
2018-04-02T00:33:53.579Z,3.91
2018-04-02T00:36:19.249Z,3.90
2018-04-02T00:38:44.928Z,3.89
2018-04-02T00:41:10.616Z,3.89
2018-04-02T00:43:36.349Z,3.91
2018-04-02T00:46:01.981Z,3.93
2018-04-02T00:48:27.644Z,3.92
2018-04-02T00:50:53.756Z,3.94
2018-04-02T00:53:19.437Z,3.96
2018-04-02T00:55:45.100Z,3.92
2018-04-02T00:58:10.789Z,3.90
2018-04-02T01:00:36.456Z,3.88
2018-04-02T01:03:02.124Z,3.89
2018-04-02T01:05:27.800Z,3.89
2018-04-02T01:07:53.455Z,3.90
2018-04-02T01:10:19.115Z,3.91
2018-04-02T01:12:44.793Z,3.93
2018-04-02T01:15:10.457Z,3.91
2018-04-02T01:17:36.114Z,3.88
2018-04-02T01:20:01.796Z,3.87
2018-04-02T01:22:27.820Z,3.88
2018-04-02T01:24:53.489Z,3.85
2018-04-02T01:27:19.192Z,3.79
2018-04-02T01:29:44.853Z,3.76
2018-04-02T01:32:10.518Z,3.78
2018-04-02T01:34:36.218Z,3.78
2018-04-02T01:37:01.876Z,3.79
2018-04-02T01:39:27.546Z,3.79
2018-04-02T01:41:53.205Z,3.79
2018-04-02T01:44:18.881Z,3.76
2018-04-02T01:46:44.557Z,3.74
2018-04-02T01:49:14.181Z,3.75
2018-04-02T01:59:56.600Z,3.76
2018-04-02T02:02:22.309Z,3.74
2018-04-02T02:04:47.960Z,3.72
2018-04-02T02:07:13.620Z,3.69
2018-04-02T02:09:39.274Z,3.67
2018-04-02T02:12:04.962Z,3.66
2018-04-02T02:14:30.626Z,3.63
2018-04-02T02:16:56.285Z,3.63
2018-04-02T02:19:21.954Z,3.60
2018-04-02T02:21:48.000Z,3.59
2018-04-02T02:24:13.669Z,3.56
2018-04-02T02:26:39.553Z,3.52
2018-04-02T02:29:05.221Z,3.50
2018-04-02T02:31:30.876Z,3.50
2018-04-02T02:33:56.544Z,3.49
2018-04-02T02:36:22.213Z,3.50
2018-04-02T02:38:48.237Z,3.49
2018-04-02T02:41:13.925Z,3.47
2018-04-02T02:43:39.597Z,3.47
2018-04-02T02:46:05.253Z,3.48
2018-04-02T02:48:30.932Z,3.47
2018-04-02T02:50:56.580Z,3.32
2018-04-02T02:53:22.251Z,3.48
2018-04-02T02:55:47.939Z,3.48
2018-04-02T02:58:13.616Z,3.48
2018-04-02T03:00:39.403Z,3.53
2018-04-02T03:03:05.101Z,3.52
2018-04-02T03:05:30.780Z,3.53
2018-04-02T03:07:56.456Z,3.53
2018-04-02T03:10:22.147Z,3.54
2018-04-02T03:12:47.816Z,3.53
2018-04-02T03:15:13.476Z,3.53
2018-04-02T03:17:39.143Z,3.53
2018-04-02T03:20:05.117Z,3.52
2018-04-02T03:22:30.778Z,3.52
2018-04-02T03:24:56.472Z,3.51
2018-04-02T03:27:22.148Z,3.50
2018-04-02T03:29:47.837Z,3.52
2018-04-02T03:32:13.518Z,3.51
2018-04-02T03:34:39.196Z,3.50
2018-04-02T03:37:05.337Z,3.50
2018-04-02T03:39:31.004Z,3.49
2018-04-02T03:41:56.660Z,3.48
2018-04-02T03:44:22.353Z,3.50
2018-04-02T03:46:48.001Z,3.51
2018-04-02T03:49:13.657Z,3.53
2018-04-02T03:51:39.328Z,3.56
2018-04-02T03:54:05.332Z,3.54
2018-04-02T03:56:30.987Z,3.53
2018-04-02T03:58:56.668Z,3.52
2018-04-02T04:01:22.336Z,3.54
2018-04-02T04:03:47.987Z,3.46
2018-04-02T04:06:13.655Z,3.56
2018-04-02T04:08:39.329Z,3.57
2018-04-02T04:11:05.239Z,3.53
2018-04-02T04:13:30.916Z,3.54
2018-04-02T04:15:56.569Z,3.55
2018-04-02T04:18:22.248Z,3.56
2018-04-02T04:20:47.920Z,3.56
2018-04-02T04:23:13.585Z,3.59
2018-04-02T04:25:39.266Z,3.61
2018-04-02T04:28:05.276Z,3.59
2018-04-02T04:30:30.944Z,3.58
2018-04-02T04:32:56.624Z,3.56
2018-04-02T04:35:22.320Z,3.57
2018-04-02T04:37:48.021Z,3.60
2018-04-02T04:40:13.699Z,3.64
2018-04-02T04:42:39.365Z,3.65
2018-04-02T04:45:05.028Z,3.67
2018-04-02T04:47:30.696Z,3.65
2018-04-02T04:49:56.364Z,3.66
2018-04-02T04:52:22.069Z,3.65
2018-04-02T04:54:47.752Z,3.65
2018-04-02T04:57:13.878Z,3.64
2018-04-02T04:59:39.532Z,3.65
2018-04-02T05:02:05.196Z,3.66
2018-04-02T05:04:30.906Z,3.68
2018-04-02T05:06:56.571Z,3.70
2018-04-02T05:09:22.241Z,3.74
2018-04-02T05:11:47.937Z,3.78
2018-04-02T05:14:13.588Z,3.81
2018-04-02T05:16:39.248Z,3.84
2018-04-02T05:19:04.949Z,3.87
2018-04-02T05:21:30.629Z,3.90
2018-04-02T05:23:56.844Z,3.95
2018-04-02T05:26:22.524Z,3.96
2018-04-02T05:28:48.190Z,3.97
2018-04-02T05:31:14.453Z,3.96
2018-04-02T05:33:39.541Z,4.00
2018-04-02T05:36:05.241Z,4.03
2018-04-02T05:38:30.910Z,4.07
2018-04-02T05:40:56.588Z,4.08
2018-04-02T05:43:22.252Z,4.11
2018-04-02T05:45:47.908Z,4.15
2018-04-02T05:48:13.574Z,4.18
2018-04-02T05:50:39.924Z,4.20
2018-04-02T05:53:05.585Z,4.27
2018-04-02T05:55:31.262Z,4.27
2018-04-02T05:57:56.941Z,4.28
2018-04-02T06:00:22.601Z,4.32
2018-04-02T06:02:48.286Z,4.32
2018-04-02T06:05:14.073Z,4.34
2018-04-02T06:07:39.860Z,4.39
2018-04-02T06:10:05.534Z,4.47
2018-04-02T06:12:31.200Z,4.61
2018-04-02T06:14:56.868Z,4.80
2018-04-02T06:17:22.551Z,5.02
2018-04-02T06:19:48.207Z,5.21
2018-04-02T06:22:13.877Z,5.33
2018-04-02T06:24:39.866Z,5.36
2018-04-02T06:27:05.533Z,5.37
2018-04-02T06:29:31.200Z,5.35
2018-04-02T06:31:56.877Z,5.35
2018-04-02T06:34:22.550Z,5.40
2018-04-02T06:36:48.208Z,5.42
2018-04-02T06:39:13.880Z,5.46
2018-04-02T06:41:39.544Z,5.51
2018-04-02T06:44:05.225Z,5.55
2018-04-02T06:46:30.895Z,5.56
2018-04-02T06:48:56.546Z,5.59
2018-04-02T06:51:22.201Z,5.65
2018-04-02T06:53:48.355Z,5.73
2018-04-02T06:56:14.017Z,5.77
2018-04-02T06:58:39.674Z,5.88
2018-04-02T07:01:05.384Z,6.00
2018-04-02T07:03:31.060Z,6.07
2018-04-02T07:05:56.725Z,6.13
2018-04-02T07:08:22.445Z,6.16
2018-04-02T07:10:48.095Z,6.23
2018-04-02T07:13:13.761Z,6.28
2018-04-02T07:15:39.444Z,6.39
2018-04-02T07:18:05.109Z,6.48
2018-04-02T07:20:30.777Z,6.53
2018-04-02T07:22:56.472Z,6.56
2018-04-02T07:25:22.465Z,6.57
2018-04-02T07:27:48.131Z,6.62
2018-04-02T07:30:13.804Z,6.58
2018-04-02T07:32:39.462Z,6.56
2018-04-02T07:35:05.126Z,6.63
2018-04-02T07:37:30.816Z,6.70
2018-04-02T07:39:56.508Z,6.74
2018-04-02T07:42:22.175Z,6.80
2018-04-02T07:44:47.856Z,6.75
2018-04-02T07:47:13.532Z,6.76
2018-04-02T07:49:39.233Z,6.57
2018-04-02T07:52:04.914Z,6.54
2018-04-02T07:54:30.587Z,6.51
2018-04-02T07:56:56.268Z,6.52
2018-04-02T07:59:22.424Z,6.51
2018-04-02T08:01:48.093Z,6.56
2018-04-02T08:04:13.806Z,6.73
2018-04-02T08:06:39.431Z,6.88
2018-04-02T08:09:05.109Z,6.95
2018-04-02T08:11:30.819Z,7.00
2018-04-02T08:13:56.477Z,7.07
2018-04-02T08:16:22.132Z,7.25
2018-04-02T08:18:48.360Z,7.43
2018-04-02T08:21:14.023Z,7.64
2018-04-02T08:23:39.701Z,7.79
2018-04-02T08:26:05.381Z,7.91
2018-04-02T08:28:31.052Z,8.02
2018-04-02T08:30:56.756Z,8.10
2018-04-02T08:33:22.412Z,8.17
2018-04-02T08:35:48.337Z,8.15
2018-04-02T08:38:13.992Z,8.05
2018-04-02T08:40:39.673Z,8.03
2018-04-02T08:43:05.352Z,7.94
2018-04-02T08:45:31.025Z,8.10
2018-04-02T08:47:56.681Z,8.10
2018-04-02T08:50:22.388Z,8.17
2018-04-02T08:52:48.056Z,8.24
2018-04-02T08:55:13.729Z,8.31
2018-04-02T08:57:39.894Z,8.40
2018-04-02T09:00:05.599Z,8.46
2018-04-02T09:02:31.255Z,8.50
2018-04-02T09:04:56.926Z,8.42
2018-04-02T09:07:22.603Z,8.25
2018-04-02T09:09:48.279Z,8.22
2018-04-02T09:12:13.977Z,8.28
2018-04-02T09:14:39.656Z,8.37
2018-04-02T09:17:05.316Z,8.52
2018-04-02T09:19:30.987Z,8.59
2018-04-02T09:21:56.683Z,8.62
2018-04-02T09:24:22.761Z,8.71
2018-04-02T09:26:48.448Z,8.80
2018-04-02T09:29:14.160Z,8.84
2018-04-02T09:31:39.840Z,8.96
2018-04-02T09:34:05.516Z,9.00
2018-04-02T09:36:31.206Z,8.98
2018-04-02T09:38:56.894Z,8.98
2018-04-02T09:41:22.566Z,9.01
2018-04-02T09:43:48.239Z,9.10
2018-04-02T09:46:13.908Z,9.16
2018-04-02T09:48:39.640Z,9.18
2018-04-02T09:51:05.300Z,9.22
2018-04-02T09:53:30.972Z,9.29
2018-04-02T09:55:57.203Z,9.34
2018-04-02T09:58:22.861Z,9.44
2018-04-02T10:00:48.823Z,9.49
2018-04-02T10:03:14.508Z,9.60
2018-04-02T10:05:40.156Z,9.67
2018-04-02T10:08:05.829Z,9.71
2018-04-02T10:10:31.533Z,9.79
2018-04-02T10:12:57.183Z,9.82
2018-04-02T10:15:22.994Z,9.87
2018-04-02T10:17:48.652Z,9.89
2018-04-02T10:20:14.340Z,9.88
2018-04-02T10:22:40.038Z,9.95
2018-04-02T10:25:05.719Z,10.04
2018-04-02T10:27:31.798Z,10.10
2018-04-02T10:29:57.545Z,10.11
2018-04-02T10:32:23.173Z,10.12
2018-04-02T10:34:48.839Z,10.08
2018-04-02T10:37:14.527Z,10.09
2018-04-02T10:39:40.204Z,10.11
2018-04-02T10:42:05.885Z,10.20
2018-04-02T10:44:31.582Z,10.27
2018-04-02T10:46:57.356Z,10.30
2018-04-02T10:49:23.037Z,10.35
2018-04-02T10:51:49.293Z,10.32
2018-04-02T10:54:14.949Z,10.37
2018-04-02T10:56:40.638Z,10.41
2018-04-02T10:59:06.315Z,10.46
2018-04-02T11:01:31.985Z,10.54
2018-04-02T11:03:57.633Z,10.57
2018-04-02T11:06:23.323Z,10.66
2018-04-02T11:08:49.317Z,10.80
2018-04-02T11:11:15.025Z,10.87
2018-04-02T11:13:40.716Z,10.89
2018-04-02T11:16:06.389Z,10.99
2018-04-02T11:18:32.039Z,11.12
2018-04-02T11:20:57.734Z,11.18
2018-04-02T11:23:23.412Z,11.21
2018-04-02T11:25:49.708Z,11.34
2018-04-02T11:28:15.380Z,11.50
2018-04-02T11:30:41.040Z,11.70
2018-04-02T11:33:06.691Z,11.67
2018-04-02T11:35:32.373Z,11.74
2018-04-02T11:37:58.053Z,11.69
2018-04-02T11:40:23.734Z,11.81
2018-04-02T11:42:49.472Z,11.72
2018-04-02T11:45:15.089Z,11.65
2018-04-02T11:47:40.770Z,11.63
2018-04-02T11:50:06.799Z,11.62
2018-04-02T11:52:32.457Z,11.66
2018-04-02T11:54:58.130Z,11.66
2018-04-02T11:57:23.808Z,11.62
2018-04-02T11:59:49.463Z,11.63
2018-04-02T12:02:15.136Z,11.73
2018-04-02T12:04:40.817Z,11.87
2018-04-02T12:07:06.509Z,12.06
2018-04-02T12:09:32.168Z,12.22
2018-04-02T12:11:57.884Z,12.21
2018-04-02T12:19:54.517Z,12.73
2018-04-02T12:22:20.177Z,12.86
2018-04-02T12:24:45.834Z,12.94
2018-04-02T12:27:11.504Z,12.91
2018-04-02T12:29:37.178Z,12.80
2018-04-02T12:32:02.843Z,12.79
2018-04-02T12:34:28.514Z,12.77
2018-04-02T12:36:54.205Z,12.79
2018-04-02T12:39:19.858Z,12.80
2018-04-02T12:41:45.559Z,12.84
2018-04-02T12:44:11.276Z,12.83
2018-04-02T12:46:36.933Z,12.91
2018-04-02T12:49:03.019Z,12.82
2018-04-02T12:51:28.712Z,13.04
2018-04-02T12:53:54.380Z,13.10
2018-04-02T12:56:20.068Z,13.28
2018-04-02T12:58:45.746Z,13.43
2018-04-02T13:01:11.409Z,13.42
2018-04-02T13:03:37.102Z,13.52
2018-04-02T13:06:03.220Z,13.51
2018-04-02T13:08:28.885Z,13.55
2018-04-02T13:10:54.560Z,13.56
2018-04-02T13:13:20.225Z,13.50
2018-04-02T13:15:45.889Z,13.54
2018-04-02T13:18:11.583Z,13.59
2018-04-02T13:20:37.277Z,13.62
2018-04-02T13:23:02.933Z,13.65
2018-04-02T13:25:29.080Z,13.62
2018-04-02T13:27:54.757Z,13.77
2018-04-02T13:30:20.424Z,13.93
2018-04-02T13:32:46.122Z,14.07
2018-04-02T13:35:11.832Z,14.19
2018-04-02T13:37:37.484Z,14.23
2018-04-02T13:40:03.182Z,14.20
2018-04-02T13:42:28.866Z,14.15
2018-04-02T13:44:54.527Z,14.09
2018-04-02T13:47:20.224Z,14.04
2018-04-02T13:49:45.896Z,14.06
2018-04-02T13:52:11.947Z,14.01
2018-04-02T13:54:37.630Z,14.04
2018-04-02T13:57:03.299Z,14.10
2018-04-02T13:59:28.999Z,14.09
2018-04-02T14:01:54.675Z,13.99
2018-04-02T14:04:20.353Z,14.06
2018-04-02T14:06:46.013Z,14.20
2018-04-02T14:09:11.698Z,14.28
2018-04-02T14:11:37.364Z,14.22
2018-04-02T14:14:03.066Z,14.20
2018-04-02T14:16:28.728Z,14.13
2018-04-02T14:18:54.385Z,13.99
2018-04-02T14:21:20.152Z,13.95
2018-04-02T14:23:46.694Z,13.87
2018-04-02T14:26:12.358Z,13.86
2018-04-02T14:28:38.040Z,13.92
2018-04-02T14:31:03.707Z,13.94
2018-04-02T14:33:29.370Z,13.84
2018-04-02T14:35:55.073Z,13.80
2018-04-02T14:38:20.784Z,13.68
2018-04-02T14:40:46.451Z,13.75
2018-04-02T14:43:12.146Z,13.77
2018-04-02T14:45:37.820Z,13.72
2018-04-02T14:48:03.480Z,13.70
2018-04-02T14:50:29.229Z,13.74
2018-04-02T14:52:54.891Z,13.76
2018-04-02T14:55:20.546Z,13.75
2018-04-02T14:57:46.220Z,13.70
2018-04-02T15:00:11.872Z,13.67
2018-04-02T15:02:37.545Z,13.67
2018-04-02T15:05:03.243Z,13.68
2018-04-02T15:07:28.896Z,13.69
2018-04-02T15:09:54.564Z,13.68
2018-04-02T15:13:33.029Z,13.55
2018-04-02T15:15:58.685Z,13.35
2018-04-02T15:18:24.344Z,13.28
2018-04-02T15:20:50.028Z,13.23
2018-04-02T15:23:16.143Z,13.22
2018-04-02T15:25:41.872Z,13.23
2018-04-02T15:28:07.576Z,13.23
2018-04-02T15:30:33.252Z,13.22
2018-04-02T15:32:58.897Z,13.19
2018-04-02T15:35:24.585Z,13.18
2018-04-02T15:37:50.268Z,13.16
2018-04-02T15:40:15.915Z,13.10
2018-04-02T15:42:41.596Z,13.08
2018-04-02T15:45:07.246Z,13.10
2018-04-02T15:47:32.927Z,13.12
2018-04-02T15:49:58.593Z,13.12
2018-04-02T15:52:24.622Z,13.11
2018-04-02T15:54:50.312Z,13.05
2018-04-02T15:57:16.000Z,13.00
2018-04-02T15:59:41.664Z,12.99
2018-04-02T16:02:07.328Z,12.96
2018-04-02T16:04:32.997Z,12.94
2018-04-02T16:06:58.651Z,12.92
2018-04-02T16:09:24.641Z,12.91
2018-04-02T16:11:50.344Z,12.88
2018-04-02T16:14:16.018Z,12.85
2018-04-02T16:16:41.684Z,12.80
2018-04-02T16:19:07.372Z,12.74
2018-04-02T16:21:33.028Z,12.71
2018-04-02T16:23:58.703Z,12.67
2018-04-02T16:26:24.876Z,12.61
2018-04-02T16:28:50.549Z,12.60
2018-04-02T16:31:16.280Z,12.63
2018-04-02T16:33:42.606Z,12.62
2018-04-02T16:36:08.358Z,12.63
2018-04-02T16:38:34.029Z,12.60
2018-04-02T16:40:59.711Z,12.58
2018-04-02T16:43:25.386Z,12.57
2018-04-02T16:45:51.906Z,12.55
2018-04-02T16:48:18.189Z,12.53
2018-04-02T16:50:43.896Z,12.52
2018-04-02T16:53:09.578Z,12.53
2018-04-02T16:55:35.281Z,12.47
2018-04-02T16:58:00.940Z,12.45
2018-04-02T17:00:26.620Z,12.32
2018-04-02T17:02:52.333Z,12.27
2018-04-02T17:05:18.388Z,12.22
2018-04-02T17:07:44.048Z,12.12
2018-04-02T17:10:09.732Z,12.04
2018-04-02T17:12:35.390Z,12.01
2018-04-02T17:15:01.053Z,11.98
2018-04-02T17:17:26.740Z,11.86
2018-04-02T17:19:52.393Z,11.81
2018-04-02T17:22:18.061Z,11.69
2018-04-02T17:24:43.781Z,11.75
2018-04-02T17:27:09.537Z,11.69
2018-04-02T17:29:35.203Z,11.70
2018-04-02T17:32:00.878Z,11.68
2018-04-02T17:34:26.524Z,11.64
2018-04-02T17:36:52.181Z,11.60
2018-04-02T17:39:17.872Z,11.60
2018-04-02T17:41:43.556Z,11.55
2018-04-02T17:44:09.217Z,11.54
2018-04-02T17:46:34.916Z,11.55
2018-04-02T17:49:00.577Z,11.55
2018-04-02T17:51:26.246Z,11.54
2018-04-02T17:53:52.320Z,11.49
2018-04-02T17:56:17.975Z,11.42
2018-04-02T17:58:43.677Z,11.42
2018-04-02T18:01:09.352Z,11.35
2018-04-02T18:03:35.016Z,11.31
2018-04-02T18:06:00.682Z,11.34
2018-04-02T18:08:26.366Z,11.31
2018-04-02T18:10:52.404Z,11.28
2018-04-02T18:13:18.092Z,11.24
2018-04-02T18:15:43.886Z,11.15
2018-04-02T18:18:09.575Z,11.11
2018-04-02T18:20:35.903Z,11.10
2018-04-02T18:23:01.568Z,11.09
2018-04-02T18:25:27.258Z,11.04
2018-04-02T18:27:52.907Z,11.03
2018-04-02T18:30:18.880Z,11.02
2018-04-02T18:32:44.570Z,10.99
2018-04-02T18:35:10.325Z,11.02
2018-04-02T18:37:35.984Z,11.02
2018-04-02T18:40:01.653Z,11.00
2018-04-02T18:42:27.341Z,11.00
2018-04-02T18:44:53.026Z,10.97
2018-04-02T18:47:18.701Z,10.94
2018-04-02T18:49:44.430Z,10.90
2018-04-02T18:52:10.095Z,10.90
2018-04-02T18:54:36.039Z,10.88
2018-04-02T18:57:01.735Z,10.87
2018-04-02T18:59:27.424Z,10.78
2018-04-02T19:01:53.090Z,10.73
2018-04-02T19:04:18.802Z,10.69
2018-04-02T19:06:44.586Z,10.66
2018-04-02T19:09:10.339Z,10.64
2018-04-02T19:11:36.032Z,10.64
2018-04-02T19:14:01.707Z,10.65
2018-04-02T19:16:27.372Z,10.61
2018-04-02T19:18:53.755Z,10.49
2018-04-02T19:21:19.431Z,10.61
2018-04-02T19:23:45.240Z,10.58
2018-04-02T19:26:10.929Z,10.54
2018-04-02T19:28:36.608Z,10.45
2018-04-02T19:31:02.264Z,10.41
2018-04-02T19:33:27.933Z,10.40
2018-04-02T19:35:53.636Z,10.42
2018-04-02T19:38:19.308Z,10.42
2018-04-02T19:40:44.965Z,10.44
2018-04-02T19:43:10.632Z,10.44
2018-04-02T19:45:36.301Z,10.45
2018-04-02T19:48:01.976Z,10.43
2018-04-02T19:50:27.660Z,10.40
2018-04-02T19:52:53.330Z,10.39
2018-04-02T19:55:19.012Z,10.35
2018-04-02T19:57:44.966Z,10.28
2018-04-02T20:00:10.709Z,10.28
2018-04-02T20:02:36.369Z,10.26
2018-04-02T20:05:02.032Z,10.24
2018-04-02T20:07:27.712Z,10.27
2018-04-02T20:09:53.361Z,10.27
2018-04-02T20:12:19.040Z,10.27
2018-04-02T20:14:44.741Z,10.28
2018-04-02T20:17:10.411Z,10.30
2018-04-02T20:19:36.068Z,10.33
2018-04-02T20:22:01.782Z,10.29
2018-04-02T20:24:27.752Z,10.28
2018-04-02T20:26:53.464Z,10.27
2018-04-02T20:29:19.160Z,10.26
2018-04-02T20:31:44.834Z,10.27
2018-04-02T20:34:10.507Z,10.23
2018-04-02T20:36:36.191Z,10.23
2018-04-02T20:39:01.852Z,10.23
2018-04-02T20:41:27.780Z,10.22
2018-04-02T20:43:53.452Z,10.19
2018-04-02T20:46:19.103Z,10.15
2018-04-02T20:48:44.795Z,10.15
2018-04-02T20:51:10.531Z,10.14
2018-04-02T20:53:36.190Z,10.15
2018-04-02T20:56:01.859Z,10.18
2018-04-02T20:58:27.786Z,10.16
2018-04-02T21:00:53.432Z,10.16
2018-04-02T21:03:19.111Z,10.14
2018-04-02T21:05:44.768Z,10.12
2018-04-02T21:08:10.437Z,10.09
2018-04-02T21:10:36.161Z,10.10
2018-04-02T21:13:01.840Z,10.10
2018-04-02T21:15:27.501Z,10.09
2018-04-02T21:17:53.262Z,9.99
2018-04-02T21:20:19.231Z,9.96
2018-04-02T21:22:44.902Z,9.94
2018-04-02T21:25:10.569Z,9.96
2018-04-02T21:27:36.273Z,9.98
2018-04-02T21:30:01.958Z,9.95
2018-04-02T21:32:27.637Z,9.94
2018-04-02T21:34:53.310Z,9.93
2018-04-02T21:37:18.971Z,9.94
2018-04-02T21:39:44.658Z,9.91
2018-04-02T21:42:10.333Z,9.87
2018-04-02T21:44:36.004Z,9.88
2018-04-02T21:47:01.692Z,9.88
2018-04-02T21:49:27.344Z,9.91
2018-04-02T21:51:53.549Z,9.94
2018-04-02T21:54:19.262Z,9.92
2018-04-02T21:56:44.979Z,9.96
2018-04-02T21:59:10.798Z,9.94
2018-04-02T22:01:36.499Z,9.88
2018-04-02T22:04:02.252Z,9.85
2018-04-02T22:06:34.206Z,9.88
2018-04-02T22:09:00.388Z,9.96
2018-04-02T22:11:26.011Z,9.99
2018-04-02T22:13:51.700Z,9.92
2018-04-02T22:16:17.348Z,10.05
2018-04-02T22:18:42.997Z,10.08
2018-04-02T22:21:08.676Z,10.08
2018-04-02T22:23:34.334Z,10.04
2018-04-02T22:26:00.013Z,10.05
2018-04-02T22:28:25.955Z,10.04
2018-04-02T22:30:51.632Z,10.05
2018-04-02T22:33:17.288Z,10.04
2018-04-02T22:35:42.964Z,10.00
2018-04-02T22:40:34.232Z,10.00
2018-04-02T22:42:59.909Z,10.04
2018-04-02T22:45:25.587Z,10.05
2018-04-02T22:47:51.340Z,10.08
2018-04-02T22:50:17.004Z,10.09
2018-04-02T22:52:42.926Z,10.09
2018-04-02T22:55:08.605Z,10.07
2018-04-02T22:57:34.277Z,10.04
2018-04-02T22:59:59.924Z,10.06
2018-04-02T23:02:25.588Z,10.11
2018-04-02T23:04:51.237Z,10.11
2018-04-02T23:07:16.908Z,10.11
2018-04-02T23:09:42.732Z,10.13
2018-04-02T23:12:08.396Z,10.13
2018-04-02T23:14:34.063Z,10.06
2018-04-02T23:16:59.762Z,10.04
2018-04-02T23:19:25.439Z,10.07
2018-04-02T23:21:51.106Z,10.10
2018-04-02T23:24:16.797Z,10.11
2018-04-02T23:26:42.520Z,10.13
2018-04-02T23:29:08.181Z,10.16
2018-04-02T23:31:33.872Z,10.12
2018-04-02T23:33:59.532Z,10.11
2018-04-02T23:36:25.184Z,10.10
2018-04-02T23:38:50.853Z,10.08
2018-04-02T23:41:16.513Z,10.08
2018-04-02T23:43:42.172Z,10.10
2018-04-02T23:46:07.860Z,10.08
2018-04-02T23:48:33.533Z,10.10
2018-04-02T23:50:59.207Z,9.97
2018-04-02T23:53:24.956Z,10.14
2018-04-02T23:55:50.612Z,10.11
2018-04-02T23:58:16.292Z,10.09
